M I D A S
Marine Information and Data Acquisition System
Tripno 1117 of the Zeeleeuw from 2006-06-28 06:48:05 to 2006-06-28 13:31:50
Back to CruiseResearch ActivitiesStationsMapUnderway DataData graphs

EquipmentUnitsComments
TimeDGPSUTC
LatitudeDGPSDM.mWGS84
LongitudeDGPSDM.mWGS84
SpeedMeteo Stationm/sRelative wind speed
DirectionMeteo StationdegRelative wind direction
TemperatureMeteo Stationdeg CelciusAir temperature
PressureMeteo StationPaAtmospheric pressure
HumidityMeteo Station%Relative humidity
Missing or incorrect values are displayed as -999
Metereological data collected by the RV Zeeleeuw from 2006-06-28 06:48:06 to 2006-06-28 13:44:32
                                                                                    Next 1000 lines
Time Latitude Longitude Speed Direction Temperature Pressure Humidity
2006-06-28 06:48:14 51°13.601 2°56.097 1.2 333 15.6 102120 72
2006-06-28 06:48:21 51°13.602 2°56.095 1.6 324 15.6 102120 72
2006-06-28 06:48:27 51°13.602 2°56.093 2.1 330 15.6 102120 72
2006-06-28 06:48:31 51°13.603 2°56.091 1.7 324 15.6 102120 72
2006-06-28 06:48:36 51°13.603 2°56.089 1.7 280 15.6 102120 71
2006-06-28 06:48:41 51°13.604 2°56.086 1.1 341 15.6 102120 71
2006-06-28 06:48:47 51°13.605 2°56.082 1.3 288 15.6 102120 71
2006-06-28 06:48:51 51°13.605 2°56.08 1.6 232 15.6 102120 71
2006-06-28 06:48:57 51°13.606 2°56.075 1.3 337 15.6 102120 71
2006-06-28 06:49:02 51°13.607 2°56.07 1.5 39 15.6 102120 71
2006-06-28 06:49:07 51°13.609 2°56.066 1.2 282 15.6 102120 71
2006-06-28 06:49:11 51°13.61 2°56.062 0.8 341 15.6 102120 71
2006-06-28 06:49:17 51°13.612 2°56.055 0.6 353 15.6 102120 71
2006-06-28 06:49:22 51°13.614 2°56.049 1.2 33 15.6 102120 71
2006-06-28 06:49:27 51°13.616 2°56.043 1.7 75 15.6 102130 71
2006-06-28 06:49:31 51°13.617 2°56.038 1.4 268 15.6 102130 71
2006-06-28 06:49:37 51°13.619 2°56.031 1.2 80 15.6 102130 71
2006-06-28 06:49:41 51°13.62 2°56.025 1.2 30 15.6 102130 71
2006-06-28 06:49:47 51°13.623 2°56.017 1.4 21 15.7 102130 71
2006-06-28 06:49:52 51°13.625 2°56.01 1.8 39 15.7 102130 71
2006-06-28 06:49:57 51°13.627 2°56.003 1.6 78 15.6 102130 71
2006-06-28 06:50:02 51°13.63 2°55.996 1.5 30 15.6 102130 71
2006-06-28 06:50:07 51°13.632 2°55.988 0.9 81 15.7 102120 71
2006-06-28 06:50:11 51°13.633 2°55.982 0.7 37 15.7 102120 71
2006-06-28 06:50:17 51°13.636 2°55.974 1 25 15.6 102130 71
2006-06-28 06:50:21 51°13.638 2°55.967 1.9 39 15.6 102130 71
2006-06-28 06:50:27 51°13.64 2°55.958 1.5 78 15.6 102130 70
2006-06-28 06:50:32 51°13.642 2°55.95 2.1 32 15.6 102130 70
2006-06-28 06:50:37 51°13.644 2°55.942 1.8 79 15.6 102130 71
2006-06-28 06:50:42 51°13.646 2°55.935 1.8 267 15.6 102130 71
2006-06-28 06:50:47 51°13.648 2°55.927 1.7 283 15.6 102130 70
2006-06-28 06:50:51 51°13.65 2°55.921 2.3 258 15.6 102130 70
2006-06-28 06:50:57 51°13.653 2°55.912 1.7 285 15.5 102120 70
2006-06-28 06:51:01 51°13.655 2°55.906 1.4 269 15.5 102120 70
2006-06-28 06:51:07 51°13.658 2°55.897 1.2 283 15.5 102130 70
2006-06-28 06:51:12 51°13.66 2°55.889 1.3 270 15.5 102130 70
2006-06-28 06:51:17 51°13.663 2°55.882 1.1 26 15.5 102130 70
2006-06-28 06:51:22 51°13.665 2°55.875 1.4 270 15.5 102130 70
2006-06-28 06:51:27 51°13.668 2°55.867 1.2 287 15.5 102130 70
2006-06-28 06:51:32 51°13.671 2°55.86 1.3 263 15.5 102130 70
2006-06-28 06:51:37 51°13.673 2°55.853 1.5 83 15.5 102130 70
2006-06-28 06:51:41 51°13.674 2°55.847 1.8 26 15.5 102130 70
2006-06-28 06:51:47 51°13.678 2°55.838 1.9 266 15.5 102130 70
2006-06-28 06:51:52 51°13.681 2°55.831 1.1 263 15.5 102130 70
2006-06-28 06:51:57 51°13.685 2°55.824 1.8 79 15.5 102130 71
2006-06-28 06:52:02 51°13.689 2°55.817 2.4 260 15.5 102130 71
2006-06-28 06:52:07 51°13.692 2°55.809 1.5 277 15.5 102130 71
2006-06-28 06:52:11 51°13.695 2°55.803 1.7 260 15.5 102130 71
2006-06-28 06:52:17 51°13.699 2°55.794 1.4 269 15.5 102130 71
2006-06-28 06:52:22 51°13.702 2°55.787 2.2 254 15.5 102130 71
2006-06-28 06:52:27 51°13.705 2°55.781 2.2 277 15.5 102130 71
2006-06-28 06:52:31 51°13.707 2°55.776 2 254 15.5 102130 71
2006-06-28 06:52:37 51°13.709 2°55.768 1 283 15.5 102130 71
2006-06-28 06:52:42 51°13.712 2°55.762 1.1 38 15.5 102130 71
2006-06-28 06:52:46 51°13.714 2°55.758 1.1 282 15.5 102140 71
2006-06-28 06:52:51 51°13.716 2°55.752 1.2 250 15.5 102140 71
2006-06-28 06:52:56 51°13.719 2°55.747 1 286 15.5 102130 71
2006-06-28 06:52:58 51°13.719 2°55.745 1.3 251 15.5 102130 71
2006-06-28 06:53:06 51°13.722 2°55.738 1.7 281 15.5 102130 71
2006-06-28 06:53:11 51°13.723 2°55.735 1.9 246 15.5 102130 71
2006-06-28 06:53:16 51°13.724 2°55.731 1.7 19 15.5 102130 70
2006-06-28 06:53:21 51°13.725 2°55.728 1.2 244 15.5 102130 70
2006-06-28 06:53:25 51°13.726 2°55.727 2.3 287 15.5 102130 70
2006-06-28 06:53:31 51°13.727 2°55.724 2.2 239 15.5 102130 70
2006-06-28 06:53:35 51°13.728 2°55.723 2.2 21 15.5 102130 71
2006-06-28 06:53:40 51°13.729 2°55.722 1.5 237 15.5 102130 71
2006-06-28 06:53:47 51°13.729 2°55.721 1.8 282 15.5 102130 71
2006-06-28 06:53:51 51°13.73 2°55.722 2.1 316 15.5 102130 71
2006-06-28 06:53:56 51°13.73 2°55.722 1.9 280 15.5 102130 71
2006-06-28 06:54:01 51°13.73 2°55.723 1.5 326 15.5 102130 71
2006-06-28 06:54:06 51°13.73 2°55.724 1.9 281 15.5 102130 70
2006-06-28 06:54:10 51°13.731 2°55.725 2.7 343 15.5 102130 70
2006-06-28 06:54:15 51°13.732 2°55.727 2.4 335 15.5 102130 70
2006-06-28 06:54:22 51°13.733 2°55.728 1.8 350 15.5 102130 70
2006-06-28 06:54:26 51°13.733 2°55.729 1.4 277 15.5 102130 70
2006-06-28 06:54:31 51°13.733 2°55.729 1.2 355 15.5 102130 70
2006-06-28 06:54:36 51°13.732 2°55.729 1.3 360 15.5 102130 70
2006-06-28 06:54:41 51°13.731 2°55.728 1.5 357 15.5 102130 70
2006-06-28 06:54:46 51°13.731 2°55.727 1.7 359 15.5 102130 70
2006-06-28 06:54:50 51°13.731 2°55.725 1.7 9 15.5 102130 70
2006-06-28 06:54:57 51°13.73 2°55.723 1.7 359 15.5 102130 70
2006-06-28 06:55:01 51°13.73 2°55.722 1.9 7 15.5 102130 70
2006-06-28 06:55:06 51°13.73 2°55.721 2 3 15.5 102130 69
2006-06-28 06:55:11 51°13.729 2°55.72 1.9 8 15.5 102130 69
2006-06-28 06:55:16 51°13.729 2°55.719 2 11 15.5 102130 69
2006-06-28 06:55:21 51°13.729 2°55.719 1.9 8 15.5 102130 69
2006-06-28 06:55:26 51°13.73 2°55.719 3.1 7 15.5 102130 70
2006-06-28 06:55:30 51°13.731 2°55.719 2.5 5 15.5 102130 70
2006-06-28 06:55:34 51°13.732 2°55.719 2.1 349 15.5 102130 70
2006-06-28 06:55:41 51°13.734 2°55.72 2.4 353 15.5 102130 70
2006-06-28 06:55:47 51°13.737 2°55.72 3 2 15.4 102130 70
2006-06-28 06:55:51 51°13.739 2°55.719 2.8 351 15.4 102130 70
2006-06-28 06:55:55 51°13.741 2°55.719 2.2 4 15.4 102130 70
2006-06-28 06:56:01 51°13.745 2°55.718 1.9 16 15.4 102130 70
2006-06-28 06:56:05 51°13.747 2°55.716 1.2 2 15.4 102130 70
2006-06-28 06:56:10 51°13.751 2°55.714 1.8 4 15.4 102130 70
2006-06-28 06:56:15 51°13.755 2°55.71 2.5 6 15.4 102130 70
2006-06-28 06:56:21 51°13.761 2°55.705 2.8 9 15.4 102130 70
2006-06-28 06:56:25 51°13.765 2°55.701 2.9 7 15.4 102130 70
2006-06-28 06:56:31 51°13.771 2°55.695 3.6 7 15.4 102130 70
2006-06-28 06:56:37 51°13.778 2°55.688 3.4 15 15.4 102130 70
2006-06-28 06:56:41 51°13.783 2°55.683 4 9 15.4 102130 70
2006-06-28 06:56:45 51°13.788 2°55.678 3.1 346 15.3 102130 70
2006-06-28 06:56:51 51°13.797 2°55.669 4.2 353 15.3 102130 70
2006-06-28 06:56:55 51°13.802 2°55.662 4 286 15.3 102130 70
2006-06-28 06:57:02 51°13.814 2°55.652 3.2 330 15.3 102130 70
2006-06-28 06:57:06 51°13.82 2°55.646 4.4 283 15.3 102130 70
2006-06-28 06:57:11 51°13.829 2°55.638 5.5 341 15.3 102130 70
2006-06-28 06:57:15 51°13.837 2°55.632 6.7 281 15.3 102130 71
2006-06-28 06:57:22 51°13.851 2°55.622 6.5 340 15.3 102130 71
2006-06-28 06:57:26 51°13.859 2°55.616 6.7 284 15.3 102130 71
2006-06-28 06:57:31 51°13.869 2°55.608 7.2 339 15.3 102130 71
2006-06-28 06:57:35 51°13.877 2°55.602 8 284 15.3 102130 71
2006-06-28 06:57:41 51°13.889 2°55.593 7.4 339 15.2 102120 71
2006-06-28 06:57:45 51°13.897 2°55.587 8.3 280 15.2 102120 71
2006-06-28 06:57:51 51°13.909 2°55.578 6.8 342 15.2 102120 71
2006-06-28 06:57:55 51°13.916 2°55.572 7.4 284 15.2 102120 71
2006-06-28 06:58:02 51°13.93 2°55.562 8.1 341 15.2 102120 71
2006-06-28 06:58:06 51°13.937 2°55.557 7.5 279 15.1 102130 71
2006-06-28 06:58:11 51°13.946 2°55.55 7.8 346 15.1 102130 71
2006-06-28 06:58:15 51°13.953 2°55.544 8.1 279 15.1 102120 70
2006-06-28 06:58:21 51°13.964 2°55.536 6 349 15.1 102120 70
2006-06-28 06:58:25 51°13.971 2°55.531 8 352 15 102130 71
2006-06-28 06:58:31 51°13.982 2°55.524 6.7 347 15 102120 71
2006-06-28 06:58:37 51°13.992 2°55.516 7.3 354 15 102120 71
2006-06-28 06:58:41 51°14 2°55.511 6.5 352 15 102120 71
2006-06-28 06:58:46 51°14.008 2°55.505 6.3 351 14.9 102120 71
2006-06-28 06:58:51 51°14.017 2°55.499 5.6 357 14.9 102120 71
2006-06-28 06:58:55 51°14.024 2°55.494 5.4 357 14.9 102120 71
2006-06-28 06:59:00 51°14.033 2°55.488 4.8 352 14.8 102120 71
2006-06-28 06:59:05 51°14.041 2°55.483 5 356 14.8 102120 71
2006-06-28 06:59:11 51°14.051 2°55.475 5.5 354 14.8 102120 71
2006-06-28 06:59:15 51°14.058 2°55.471 5.7 356 14.8 102130 71
2006-06-28 06:59:22 51°14.071 2°55.461 5.4 348 14.8 102130 71
2006-06-28 06:59:26 51°14.078 2°55.456 5.6 360 14.8 102130 70
2006-06-28 06:59:31 51°14.088 2°55.449 5.5 357 14.7 102130 71
2006-06-28 06:59:35 51°14.096 2°55.443 6.3 357 14.7 102130 71
2006-06-28 06:59:42 51°14.11 2°55.433 6 358 14.7 102130 71
2006-06-28 06:59:47 51°14.12 2°55.424 6.7 352 14.7 102130 71
2006-06-28 06:59:51 51°14.129 2°55.417 6.3 354 14.7 102130 71
2006-06-28 06:59:55 51°14.137 2°55.41 5.9 350 14.6 102130 71
2006-06-28 07:00:02 51°14.152 2°55.398 6.9 356 14.6 102130 71
2006-06-28 07:00:07 51°14.163 2°55.388 6.9 355 14.7 102130 71
2006-06-28 07:00:11 51°14.172 2°55.379 5.9 356 14.6 102130 71
2006-06-28 07:00:15 51°14.18 2°55.37 6.8 3 14.6 102130 71
2006-06-28 07:00:21 51°14.193 2°55.356 5.9 5 14.6 102130 71
2006-06-28 07:00:26 51°14.203 2°55.344 5.5 351 14.6 102130 72
2006-06-28 07:00:31 51°14.213 2°55.33 6.5 348 14.6 102130 72
2006-06-28 07:00:35 51°14.221 2°55.32 5.9 356 14.6 102130 72
2006-06-28 07:00:40 51°14.231 2°55.305 6.3 345 14.6 102130 72
2006-06-28 07:00:46 51°14.243 2°55.287 6.2 280 14.6 102130 72
2006-06-28 07:00:51 51°14.252 2°55.272 5.9 349 14.6 102130 73
2006-06-28 07:00:55 51°14.259 2°55.259 6 347 14.6 102130 73
2006-06-28 07:01:01 51°14.271 2°55.239 6.4 348 14.6 102130 73
2006-06-28 07:01:07 51°14.282 2°55.218 6.8 283 14.6 102130 73
2006-06-28 07:01:11 51°14.289 2°55.205 6.8 351 14.5 102130 73
2006-06-28 07:01:15 51°14.296 2°55.191 6.6 349 14.5 102130 73
2006-06-28 07:01:18 51°14.302 2°55.18 6.4 347 14.5 102130 73
2006-06-28 07:01:22 51°14.309 2°55.166 6 351 14.5 102130 73
2006-06-28 07:01:31 51°14.325 2°55.133 6.9 351 14.5 102130 73
2006-06-28 07:01:37 51°14.336 2°55.111 5.9 353 14.4 102130 73
2006-06-28 07:01:42 51°14.345 2°55.092 4.1 339 14.4 102130 73
2006-06-28 07:01:46 51°14.352 2°55.076 7.2 349 14.4 102130 73
2006-06-28 07:01:51 51°14.361 2°55.057 6.2 6 14.4 102130 73
2006-06-28 07:01:57 51°14.371 2°55.032 6 5 14.4 102130 73
2006-06-28 07:01:59 51°14.374 2°55.024 5.2 5 14.4 102130 74
2006-06-28 07:02:07 51°14.387 2°54.99 5.1 4 14.4 102130 74
2006-06-28 07:02:11 51°14.393 2°54.972 5.6 3 14.4 102130 73
2006-06-28 07:02:15 51°14.399 2°54.955 5.8 4 14.4 102130 73
2006-06-28 07:02:22 51°14.41 2°54.923 5.4 2 14.4 102130 73
2006-06-28 07:02:27 51°14.418 2°54.9 6.5 1 14.4 102130 73
2006-06-28 07:02:31 51°14.424 2°54.882 6.2 359 14.3 102130 73
2006-06-28 07:02:35 51°14.431 2°54.863 6.8 359 14.3 102130 73
2006-06-28 07:02:42 51°14.442 2°54.83 7.6 357 14.3 102130 74
2006-06-28 07:02:46 51°14.448 2°54.81 7.3 358 14.3 102130 74
2006-06-28 07:02:51 51°14.456 2°54.785 6.9 357 14.3 102130 73
2006-06-28 07:02:55 51°14.463 2°54.765 6.8 352 14.3 102130 73
2006-06-28 07:03:00 51°14.471 2°54.74 7 355 14.3 102130 74
2006-06-28 07:03:04 51°14.478 2°54.72 6.2 356 14.3 102130 74
2006-06-28 07:03:11 51°14.49 2°54.684 6.4 354 14.3 102130 73
2006-06-28 07:03:17 51°14.501 2°54.653 7.2 352 14.3 102130 73
2006-06-28 07:03:21 51°14.508 2°54.632 7.2 352 14.3 102130 73
2006-06-28 07:03:27 51°14.518 2°54.601 7.3 352 14.2 102130 73
2006-06-28 07:03:31 51°14.525 2°54.58 8.2 351 14.2 102130 74
2006-06-28 07:03:35 51°14.532 2°54.559 8.4 349 14.2 102130 74
2006-06-28 07:03:41 51°14.543 2°54.528 8.5 352 14.2 102130 74
2006-06-28 07:03:45 51°14.551 2°54.508 8.3 278 14.2 102130 75
2006-06-28 07:03:50 51°14.56 2°54.482 8.4 353 14.2 102130 75
2006-06-28 07:03:57 51°14.574 2°54.447 7.3 354 14.3 102130 75
2006-06-28 07:04:01 51°14.581 2°54.427 7 351 14.2 102120 75
2006-06-28 07:04:07 51°14.593 2°54.398 7.8 347 14.2 102120 75
2006-06-28 07:04:10 51°14.599 2°54.382 7.7 350 14.2 102120 75
2006-06-28 07:04:17 51°14.613 2°54.348 7.4 351 14.2 102120 75
2006-06-28 07:04:21 51°14.621 2°54.327 7.9 351 14.2 102120 75
2006-06-28 07:04:25 51°14.629 2°54.308 7.7 279 14.2 102120 75
2006-06-28 07:04:31 51°14.642 2°54.278 8.4 351 14.2 102120 75
2006-06-28 07:04:35 51°14.65 2°54.26 8.4 349 14.2 102130 75
2006-06-28 07:04:42 51°14.665 2°54.227 8.9 350 14.2 102130 75
2006-06-28 07:04:46 51°14.674 2°54.208 8.9 280 14.2 102130 75
2006-06-28 07:04:51 51°14.686 2°54.186 8.7 350 14.2 102130 75
2006-06-28 07:04:54 51°14.693 2°54.173 9 348 14.2 102120 76
2006-06-28 07:05:01 51°14.71 2°54.142 9.1 350 14.2 102120 76
2006-06-28 07:05:05 51°14.719 2°54.125 8 348 14.2 102120 76
2006-06-28 07:05:10 51°14.732 2°54.104 8.2 348 14.2 102120 76
2006-06-28 07:05:15 51°14.744 2°54.083 9.1 280 14.2 102120 76
2006-06-28 07:05:20 51°14.757 2°54.063 8.6 344 14.2 102120 76
2006-06-28 07:05:27 51°14.776 2°54.038 10.4 281 14.2 102120 76
2006-06-28 07:05:30 51°14.784 2°54.027 9.7 345 14.2 102130 76
2006-06-28 07:05:37 51°14.804 2°54.004 10.2 277 14.2 102130 76
2006-06-28 07:05:41 51°14.816 2°53.992 10.6 349 14.2 102130 76
2006-06-28 07:05:46 51°14.83 2°53.977 10.5 276 14.1 102120 76
2006-06-28 07:05:51 51°14.846 2°53.964 8.4 346 14.1 102120 76
2006-06-28 07:05:57 51°14.864 2°53.949 11.4 277 14.1 102120 76
2006-06-28 07:06:02 51°14.879 2°53.936 10.3 347 14.1 102120 76
2006-06-28 07:06:06 51°14.891 2°53.926 10 349 14.1 102110 76
2006-06-28 07:06:11 51°14.906 2°53.913 10.1 349 14.1 102110 76
2006-06-28 07:06:17 51°14.924 2°53.899 10.5 348 14.1 102110 76
2006-06-28 07:06:22 51°14.939 2°53.886 10.1 349 14.1 102110 76
2006-06-28 07:06:27 51°14.954 2°53.873 9.7 349 14.1 102130 76
2006-06-28 07:06:31 51°14.966 2°53.863 9.1 349 14.1 102130 76
2006-06-28 07:06:34 51°14.975 2°53.855 9.9 348 14.2 102120 75
2006-06-28 07:06:41 51°14.996 2°53.837 9.8 348 14.1 102120 75
2006-06-28 07:06:44 51°15.005 2°53.83 9.7 347 14.1 102120 75
2006-06-28 07:06:51 51°15.026 2°53.812 9.8 347 14.1 102120 75
2006-06-28 07:06:55 51°15.038 2°53.803 9.3 279 14.1 102120 75
2006-06-28 07:07:02 51°15.06 2°53.786 9.1 348 14.1 102120 75
2006-06-28 07:07:07 51°15.075 2°53.774 9.3 280 14.1 102120 75
2006-06-28 07:07:11 51°15.087 2°53.764 8.8 348 14.1 102120 75
2006-06-28 07:07:15 51°15.099 2°53.754 8.6 279 14.1 102120 75
2006-06-28 07:07:22 51°15.12 2°53.736 8.8 348 14.1 102120 75
2006-06-28 07:07:27 51°15.135 2°53.723 9 280 14 102130 74
2006-06-28 07:07:31 51°15.147 2°53.713 9.6 345 14.1 102120 74
2006-06-28 07:07:35 51°15.159 2°53.702 9.6 343 14.1 102120 74
2006-06-28 07:07:40 51°15.174 2°53.688 10 344 14.1 102120 74
2006-06-28 07:07:46 51°15.192 2°53.672 9.5 346 14.1 102130 75
2006-06-28 07:07:52 51°15.21 2°53.656 9 344 14.1 102130 75
2006-06-28 07:07:57 51°15.225 2°53.642 9.1 279 14.1 102120 75
2006-06-28 07:08:01 51°15.237 2°53.631 9.1 344 14.1 102130 75
2006-06-28 07:08:04 51°15.246 2°53.622 8.7 344 14.1 102130 75
2006-06-28 07:08:11 51°15.267 2°53.603 9.1 346 14 102130 75
2006-06-28 07:08:14 51°15.276 2°53.594 9.2 283 14 102130 75
2006-06-28 07:08:21 51°15.297 2°53.575 9.2 345 14 102130 74
2006-06-28 07:08:22 51°15.3 2°53.572 8.8 348 14 102130 74
2006-06-28 07:08:31 51°15.327 2°53.548 8.6 349 14 102130 75
2006-06-28 07:08:37 51°15.345 2°53.532 8 349 14 102130 75
2006-06-28 07:08:42 51°15.359 2°53.517 7.9 347 14 102130 75
2006-06-28 07:08:47 51°15.375 2°53.503 8.7 281 14 102130 75
2006-06-28 07:08:51 51°15.386 2°53.491 8.5 345 14 102130 75
2006-06-28 07:08:57 51°15.404 2°53.474 8 280 14 102130 75
2006-06-28 07:09:02 51°15.418 2°53.459 7.7 348 14 102130 75
2006-06-28 07:09:06 51°15.43 2°53.447 8.5 349 14 102130 75
2006-06-28 07:09:11 51°15.444 2°53.432 8.9 346 14 102130 75
2006-06-28 07:09:15 51°15.456 2°53.421 8.6 280 14 102130 75
2006-06-28 07:09:21 51°15.474 2°53.404 8.7 349 14 102130 75
2006-06-28 07:09:27 51°15.492 2°53.387 8.8 349 14 102130 75
2006-06-28 07:09:32 51°15.507 2°53.373 8.6 348 14 102130 75
2006-06-28 07:09:35 51°15.515 2°53.365 9.8 280 14 102130 75
2006-06-28 07:09:41 51°15.533 2°53.348 8.6 347 14 102130 75
2006-06-28 07:09:47 51°15.551 2°53.332 8.2 347 14 102130 74
2006-06-28 07:09:52 51°15.566 2°53.318 8.3 348 14 102130 74
2006-06-28 07:09:55 51°15.575 2°53.31 8.6 282 14 102130 75
2006-06-28 07:10:01 51°15.593 2°53.293 8.9 345 14 102130 74
2006-06-28 07:10:04 51°15.602 2°53.284 9.1 350 14 102130 74
2006-06-28 07:10:11 51°15.623 2°53.264 9.5 348 14 102130 74
2006-06-28 07:10:15 51°15.635 2°53.253 8.3 280 14 102130 74
2006-06-28 07:10:21 51°15.652 2°53.235 9.6 346 14 102130 75
2006-06-28 07:10:26 51°15.667 2°53.221 9.5 348 14 102130 75
2006-06-28 07:10:31 51°15.682 2°53.206 9.6 346 14 102130 75
2006-06-28 07:10:37 51°15.7 2°53.188 9.2 349 14 102130 76
2006-06-28 07:10:42 51°15.715 2°53.173 9.7 347 14 102130 76
2006-06-28 07:10:46 51°15.726 2°53.161 9.7 345 14.1 102140 76
2006-06-28 07:10:51 51°15.742 2°53.147 10.4 346 14.1 102140 76
2006-06-28 07:10:57 51°15.76 2°53.131 9.8 278 14 102130 75
2006-06-28 07:11:01 51°15.772 2°53.121 9.2 346 14 102120 75
2006-06-28 07:11:07 51°15.791 2°53.105 10.5 349 14 102120 75
2006-06-28 07:11:11 51°15.803 2°53.096 10.5 350 14 102130 75
2006-06-28 07:11:15 51°15.816 2°53.086 10.3 350 14 102130 75
2006-06-28 07:11:22 51°15.837 2°53.069 9.7 350 14 102130 75
2006-06-28 07:11:27 51°15.853 2°53.057 9.9 351 14 102130 75
2006-06-28 07:11:31 51°15.866 2°53.047 9.2 350 14 102130 75
2006-06-28 07:11:35 51°15.878 2°53.038 9.9 351 14 102130 75
2006-06-28 07:11:42 51°15.9 2°53.021 10.2 348 14 102130 75
2006-06-28 07:11:47 51°15.916 2°53.009 9.5 348 14 102120 75
2006-06-28 07:11:52 51°15.932 2°52.997 9.6 348 14 102120 75
2006-06-28 07:11:55 51°15.941 2°52.989 9.7 282 14 102130 75
2006-06-28 07:12:01 51°15.96 2°52.975 9.4 344 14 102120 75
2006-06-28 07:12:07 51°15.979 2°52.96 9.8 277 14 102120 75
2006-06-28 07:12:11 51°15.991 2°52.95 10.1 344 14.1 102130 75
2006-06-28 07:12:17 51°16.01 2°52.937 9.8 345 14.1 102130 75
2006-06-28 07:12:22 51°16.026 2°52.925 9.5 342 14.1 102130 75
2006-06-28 07:12:27 51°16.041 2°52.913 10.5 283 14 102130 75
2006-06-28 07:12:31 51°16.054 2°52.904 10.5 344 14 102130 75
2006-06-28 07:12:35 51°16.066 2°52.894 10.4 346 14 102130 75
2006-06-28 07:12:41 51°16.085 2°52.879 10.6 345 14 102130 75
2006-06-28 07:12:46 51°16.101 2°52.867 10.2 347 14 102130 75
2006-06-28 07:12:51 51°16.116 2°52.856 10.3 347 14 102130 75
2006-06-28 07:12:55 51°16.129 2°52.847 10.4 280 14 102130 75
2006-06-28 07:13:01 51°16.148 2°52.834 10.6 348 14 102130 75
2006-06-28 07:13:06 51°16.164 2°52.824 9.8 347 14 102130 75
2006-06-28 07:13:11 51°16.18 2°52.813 9.5 347 14 102140 75
2006-06-28 07:13:17 51°16.199 2°52.801 10.1 279 14 102140 75
2006-06-28 07:13:22 51°16.215 2°52.79 9.7 345 14 102140 75
2006-06-28 07:13:27 51°16.231 2°52.78 9.5 278 14 102120 75
2006-06-28 07:13:31 51°16.244 2°52.772 9.7 345 14 102130 75
2006-06-28 07:13:35 51°16.257 2°52.764 10.2 344 14 102130 75
2006-06-28 07:13:41 51°16.276 2°52.752 11.3 346 14 102130 75
2006-06-28 07:13:46 51°16.292 2°52.741 10.1 282 14 102130 75
2006-06-28 07:13:51 51°16.308 2°52.73 10.6 347 14 102130 75
2006-06-28 07:13:55 51°16.321 2°52.721 10 349 14 102130 75
2006-06-28 07:14:01 51°16.34 2°52.708 9.3 349 14 102130 75
2006-06-28 07:14:05 51°16.353 2°52.7 9.9 350 14 102130 75
2006-06-28 07:14:11 51°16.372 2°52.686 9.6 349 14 102130 75
2006-06-28 07:14:16 51°16.388 2°52.675 9.9 279 14 102130 75
2006-06-28 07:14:21 51°16.404 2°52.664 10 346 14 102130 75
2006-06-28 07:14:24 51°16.413 2°52.658 10.7 278 14 102140 74
2006-06-28 07:14:31 51°16.435 2°52.643 10.8 343 14 102130 75
2006-06-28 07:14:35 51°16.448 2°52.634 10.5 278 14 102130 75
2006-06-28 07:14:41 51°16.467 2°52.621 10.3 343 14 102130 75
2006-06-28 07:14:46 51°16.483 2°52.611 10.1 280 14.1 102130 76
2006-06-28 07:14:51 51°16.499 2°52.599 10.4 343 14.1 102140 76
2006-06-28 07:14:57 51°16.519 2°52.587 9.7 345 14.1 102140 76
2006-06-28 07:15:02 51°16.535 2°52.576 10 344 14.1 102140 76
2006-06-28 07:15:06 51°16.547 2°52.568 9.4 282 14 102130 75
2006-06-28 07:15:11 51°16.564 2°52.557 10.2 345 14 102130 74
2006-06-28 07:15:17 51°16.583 2°52.545 9.3 279 14 102130 74
2006-06-28 07:15:22 51°16.599 2°52.535 9.1 346 14 102130 74
2006-06-28 07:15:27 51°16.615 2°52.524 10 348 14 102130 74
2006-06-28 07:15:31 51°16.628 2°52.516 10.7 347 14 102130 75
2006-06-28 07:15:37 51°16.647 2°52.504 10.1 348 14 102130 75
2006-06-28 07:15:41 51°16.66 2°52.496 9.1 348 14 102130 74
2006-06-28 07:15:45 51°16.672 2°52.488 9.5 279 14 102130 74
2006-06-28 07:15:50 51°16.688 2°52.478 9.2 348 14 102130 75
2006-06-28 07:15:55 51°16.704 2°52.468 9.1 347 14 102130 75
2006-06-28 07:16:01 51°16.723 2°52.455 8.9 348 14 102140 75
2006-06-28 07:16:05 51°16.736 2°52.447 8.7 348 14 102140 75
2006-06-28 07:16:11 51°16.755 2°52.435 9.2 346 14 102120 75
2006-06-28 07:16:17 51°16.774 2°52.424 10.3 346 14 102120 75
2006-06-28 07:16:22 51°16.79 2°52.415 10 347 14 102130 75
2006-06-28 07:16:27 51°16.806 2°52.405 10.4 278 14 102130 75
2006-06-28 07:16:31 51°16.819 2°52.398 9.9 346 14 102140 76
2006-06-28 07:16:36 51°16.835 2°52.388 9.7 281 14 102140 76
2006-06-28 07:16:41 51°16.851 2°52.379 10.1 343 14 102140 76
2006-06-28 07:16:46 51°16.867 2°52.369 9.5 282 14 102140 75
2006-06-28 07:16:51 51°16.883 2°52.359 10 344 14 102130 75
2006-06-28 07:16:55 51°16.895 2°52.351 9.9 279 14 102130 75
2006-06-28 07:16:58 51°16.905 2°52.345 10 347 14 102130 75
2006-06-28 07:17:05 51°16.927 2°52.331 9.5 278 14 102130 75
2006-06-28 07:17:11 51°16.946 2°52.317 8.8 346 14 102140 75
2006-06-28 07:17:16 51°16.961 2°52.305 9.4 347 14 102140 75
2006-06-28 07:17:22 51°16.98 2°52.291 8.6 347 14 102140 75
2006-06-28 07:17:27 51°16.995 2°52.279 10.4 280 14 102130 74
2006-06-28 07:17:31 51°17.007 2°52.269 9.6 347 14 102140 74
2006-06-28 07:17:37 51°17.026 2°52.256 10.7 280 14 102140 74
2006-06-28 07:17:41 51°17.039 2°52.248 10.8 347 14 102140 74
2006-06-28 07:17:45 51°17.051 2°52.24 10.8 282 14 102140 74
2006-06-28 07:17:51 51°17.071 2°52.229 10.8 345 14 102140 75
2006-06-28 07:17:57 51°17.09 2°52.219 10.7 346 14 102140 75
2006-06-28 07:18:01 51°17.103 2°52.213 10.4 345 14 102130 75
2006-06-28 07:18:07 51°17.123 2°52.204 11.2 282 14 102130 75
2006-06-28 07:18:11 51°17.136 2°52.198 10.4 346 14 102130 75
2006-06-28 07:18:16 51°17.152 2°52.191 10.3 282 14 102130 75
2006-06-28 07:18:22 51°17.171 2°52.182 10.7 345 14 102130 74
2006-06-28 07:18:27 51°17.187 2°52.176 10.8 281 14 102130 74
2006-06-28 07:18:32 51°17.204 2°52.169 10.3 346 14 102130 74
2006-06-28 07:18:37 51°17.22 2°52.162 10.4 284 14 102130 75
2006-06-28 07:18:41 51°17.233 2°52.157 10 347 14 102130 75
2006-06-28 07:18:47 51°17.253 2°52.148 10 279 14 102130 75
2006-06-28 07:18:51 51°17.266 2°52.142 10 345 14 102130 74
2006-06-28 07:18:55 51°17.279 2°52.136 9.6 283 14 102130 74
2006-06-28 07:19:01 51°17.298 2°52.128 9.8 344 14 102130 74
2006-06-28 07:19:06 51°17.314 2°52.121 10.1 282 14 102140 74
2006-06-28 07:19:12 51°17.334 2°52.112 10.2 344 14 102140 74
2006-06-28 07:19:17 51°17.349 2°52.105 9.7 278 14 102130 74
2006-06-28 07:19:22 51°17.366 2°52.097 9.5 346 14 102130 74
2006-06-28 07:19:26 51°17.378 2°52.089 8.6 347 14 102140 74
2006-06-28 07:19:31 51°17.393 2°52.077 7.8 346 14 102140 74
2006-06-28 07:19:37 51°17.41 2°52.06 8.6 349 14 102140 74
2006-06-28 07:19:42 51°17.424 2°52.045 8.7 346 14 102140 74
2006-06-28 07:19:47 51°17.438 2°52.029 8.1 278 14 102140 74
2006-06-28 07:19:51 51°17.449 2°52.016 8.2 348 14 102140 74
2006-06-28 07:19:57 51°17.466 2°51.996 8.3 280 14 102140 74
2006-06-28 07:20:01 51°17.476 2°51.981 8.5 353 14 102140 74
2006-06-28 07:20:05 51°17.487 2°51.967 7.6 280 14 102140 74
2006-06-28 07:20:10 51°17.498 2°51.947 8.3 354 14 102140 73
2006-06-28 07:20:16 51°17.512 2°51.921 9.2 356 14 102140 73
2006-06-28 07:20:21 51°17.522 2°51.899 8.2 355 14 102140 74
2006-06-28 07:20:25 51°17.53 2°51.88 7.8 358 14 102140 74
2006-06-28 07:20:31 51°17.542 2°51.852 7.4 356 14.1 102150 75
2006-06-28 07:20:36 51°17.551 2°51.827 7.3 357 14.1 102150 75
2006-06-28 07:20:41 51°17.56 2°51.803 8.3 355 14 102140 75
2006-06-28 07:20:45 51°17.567 2°51.783 7.3 357 14 102140 75
2006-06-28 07:20:51 51°17.576 2°51.752 7.5 357 14 102140 75
2006-06-28 07:20:54 51°17.58 2°51.736 6.5 358 14 102140 74
2006-06-28 07:21:01 51°17.589 2°51.699 6.3 358 14 102140 74
2006-06-28 07:21:05 51°17.592 2°51.676 7 359 14 102140 75
2006-06-28 07:21:10 51°17.596 2°51.648 6.7 356 14 102140 75
2006-06-28 07:21:16 51°17.6 2°51.613 6.3 356 14 102140 75
2006-06-28 07:21:21 51°17.602 2°51.584 5.6 356 14 102150 75
2006-06-28 07:21:27 51°17.604 2°51.549 4.8 356 14 102150 75
2006-06-28 07:21:31 51°17.605 2°51.525 5.6 355 14 102150 75
2006-06-28 07:21:37 51°17.606 2°51.49 5.7 359 14 102150 75
2006-06-28 07:21:42 51°17.609 2°51.461 5.2 354 14 102150 75
2006-06-28 07:21:46 51°17.611 2°51.438 4.8 355 13.9 102150 75
2006-06-28 07:21:51 51°17.614 2°51.408 4.9 356 14 102160 75
2006-06-28 07:21:55 51°17.617 2°51.385 5.3 354 14 102160 75
2006-06-28 07:22:01 51°17.622 2°51.351 5.4 354 14 102150 75
2006-06-28 07:22:05 51°17.626 2°51.328 5.5 354 14 102150 75
2006-06-28 07:22:11 51°17.632 2°51.294 5.9 354 14 102150 75
2006-06-28 07:22:17 51°17.639 2°51.261 5.6 355 13.9 102160 74
2006-06-28 07:22:22 51°17.645 2°51.233 5.6 357 13.9 102160 74
2006-06-28 07:22:27 51°17.652 2°51.206 5.8 353 13.9 102150 75
2006-06-28 07:22:31 51°17.657 2°51.184 6.3 354 13.9 102160 75
2006-06-28 07:22:37 51°17.664 2°51.15 6.6 355 13.9 102160 75
2006-06-28 07:22:41 51°17.669 2°51.128 6.8 356 14 102150 75
2006-06-28 07:22:47 51°17.677 2°51.095 6.8 355 14 102150 75
2006-06-28 07:22:51 51°17.682 2°51.072 7.1 354 14 102150 76
2006-06-28 07:22:54 51°17.686 2°51.056 6.7 357 14 102150 76
2006-06-28 07:23:01 51°17.695 2°51.017 7.4 353 14 102160 76
2006-06-28 07:23:06 51°17.701 2°50.989 8 354 14 102160 76
2006-06-28 07:23:11 51°17.708 2°50.961 7.4 353 14 102150 76
2006-06-28 07:23:15 51°17.713 2°50.938 7.6 354 14 102150 76
2006-06-28 07:23:22 51°17.722 2°50.898 7.1 352 14 102150 76
2006-06-28 07:23:27 51°17.728 2°50.87 8.8 354 14 102150 76
2006-06-28 07:23:31 51°17.733 2°50.847 8.5 354 14 102150 76
2006-06-28 07:23:35 51°17.738 2°50.824 7.4 355 14 102150 76
2006-06-28 07:23:41 51°17.745 2°50.79 7.2 356 14 102150 76
2006-06-28 07:23:46 51°17.751 2°50.762 7.9 354 14 102150 76
2006-06-28 07:23:52 51°17.758 2°50.727 7.4 353 14 102150 76
2006-06-28 07:23:57 51°17.765 2°50.699 6.7 354 13.9 102140 76
2006-06-28 07:24:02 51°17.77 2°50.67 7.4 356 13.9 102140 76
2006-06-28 07:24:07 51°17.777 2°50.642 8 355 13.9 102150 76
2006-06-28 07:24:11 51°17.781 2°50.619 8.2 353 13.9 102150 75
2006-06-28 07:24:17 51°17.789 2°50.585 7.3 354 13.9 102150 75
2006-06-28 07:24:21 51°17.794 2°50.562 6.6 356 13.9 102150 76
2006-06-28 07:24:25 51°17.799 2°50.539 7.1 352 13.9 102150 76
2006-06-28 07:24:31 51°17.806 2°50.504 8.1 358 13.9 102150 76
2006-06-28 07:24:34 51°17.809 2°50.487 7.4 356 13.9 102140 76
2006-06-28 07:24:41 51°17.817 2°50.447 7.4 356 13.9 102150 76
2006-06-28 07:24:46 51°17.823 2°50.418 7.7 357 13.9 102150 76
2006-06-28 07:24:51 51°17.829 2°50.388 6.9 356 13.9 102150 76
2006-06-28 07:24:55 51°17.833 2°50.365 7 355 13.9 102150 76
2006-06-28 07:25:02 51°17.841 2°50.325 7.2 355 13.9 102150 76
2006-06-28 07:25:07 51°17.847 2°50.296 7.8 352 13.9 102150 76
2006-06-28 07:25:11 51°17.852 2°50.273 8.3 355 14 102150 76
2006-06-28 07:25:15 51°17.857 2°50.25 7.4 356 14 102150 76
2006-06-28 07:25:21 51°17.864 2°50.216 7.3 357 13.9 102150 76
2006-06-28 07:25:27 51°17.871 2°50.18 7.5 356 13.9 102150 76
2006-06-28 07:25:31 51°17.876 2°50.157 7.5 357 13.9 102150 76
2006-06-28 07:25:34 51°17.879 2°50.14 7.8 357 13.9 102150 76
2006-06-28 07:25:41 51°17.888 2°50.1 7.5 357 13.9 102150 76
2006-06-28 07:25:46 51°17.894 2°50.071 7 356 13.9 102150 76
2006-06-28 07:25:51 51°17.901 2°50.043 6.7 357 13.9 102150 76
2006-06-28 07:25:55 51°17.906 2°50.021 7.2 353 13.9 102150 76
2006-06-28 07:26:02 51°17.916 2°49.981 7.2 357 13.9 102150 76
2006-06-28 07:26:06 51°17.921 2°49.958 7.3 356 13.9 102150 75
2006-06-28 07:26:11 51°17.928 2°49.93 7.1 356 13.9 102150 75
2006-06-28 07:26:15 51°17.934 2°49.907 6.7 355 13.9 102150 75
2006-06-28 07:26:21 51°17.942 2°49.874 6.4 354 13.9 102150 75
2006-06-28 07:26:25 51°17.947 2°49.852 6.6 354 13.9 102150 75
2006-06-28 07:26:31 51°17.956 2°49.818 6.9 356 13.9 102160 75
2006-06-28 07:26:34 51°17.96 2°49.801 6.4 355 13.9 102160 75
2006-06-28 07:26:41 51°17.97 2°49.761 5.9 357 13.9 102150 74
2006-06-28 07:26:46 51°17.976 2°49.732 6.6 356 13.9 102150 74
2006-06-28 07:26:51 51°17.983 2°49.704 7 357 13.9 102150 74
2006-06-28 07:26:57 51°17.991 2°49.67 7.2 356 13.9 102150 75
2006-06-28 07:27:02 51°17.998 2°49.642 6.9 357 13.9 102150 74
2006-06-28 07:27:07 51°18.005 2°49.614 6.6 359 13.9 102150 74
2006-06-28 07:27:11 51°18.011 2°49.592 6.8 357 13.9 102160 75
2006-06-28 07:27:15 51°18.017 2°49.569 6.4 355 13.9 102160 75
2006-06-28 07:27:21 51°18.025 2°49.536 7.5 357 13.9 102150 75
2006-06-28 07:27:27 51°18.033 2°49.502 6.7 358 13.9 102150 75
2006-06-28 07:27:31 51°18.039 2°49.48 7 358 13.9 102150 75
2006-06-28 07:27:34 51°18.043 2°49.463 8.1 354 13.9 102150 75
2006-06-28 07:27:41 51°18.053 2°49.423 7.9 354 13.9 102150 75
2006-06-28 07:27:46 51°18.06 2°49.396 8 356 13.9 102150 76
2006-06-28 07:27:51 51°18.067 2°49.368 8.9 355 13.9 102150 76
2006-06-28 07:27:57 51°18.076 2°49.335 8 357 13.9 102150 76
2006-06-28 07:28:01 51°18.081 2°49.312 8.3 356 13.9 102150 76
2006-06-28 07:28:07 51°18.09 2°49.279 8.8 357 13.9 102150 76
2006-06-28 07:28:11 51°18.096 2°49.257 8.2 355 13.9 102150 76
2006-06-28 07:28:15 51°18.102 2°49.235 7.8 358 13.9 102150 76
2006-06-28 07:28:19 51°18.108 2°49.213 7.9 355 13.9 102150 76
2006-06-28 07:28:27 51°18.119 2°49.169 7.3 356 13.9 102150 76
2006-06-28 07:28:31 51°18.125 2°49.147 7.1 355 13.9 102150 76
2006-06-28 07:28:37 51°18.134 2°49.114 8.5 351 13.9 102150 76
2006-06-28 07:28:42 51°18.141 2°49.087 8 351 13.9 102150 76
2006-06-28 07:28:46 51°18.147 2°49.065 8.4 353 13.9 102150 75
2006-06-28 07:28:51 51°18.155 2°49.038 8.4 352 13.9 102150 75
2006-06-28 07:28:57 51°18.165 2°49.006 8.2 348 13.9 102150 75
2006-06-28 07:29:02 51°18.173 2°48.98 8.1 353 13.9 102150 75
2006-06-28 07:29:06 51°18.18 2°48.959 7.9 352 13.9 102150 75
2006-06-28 07:29:11 51°18.188 2°48.933 7.6 349 13.9 102150 75
2006-06-28 07:29:17 51°18.198 2°48.901 9.8 351 13.9 102150 75
2006-06-28 07:29:21 51°18.205 2°48.88 8.7 358 13.9 102150 75
2006-06-28 07:29:27 51°18.215 2°48.848 9.4 355 13.9 102150 75
2006-06-28 07:29:31 51°18.222 2°48.826 8.8 355 13.9 102150 75
2006-06-28 07:29:36 51°18.231 2°48.8 8.3 355 13.9 102150 75
2006-06-28 07:29:41 51°18.24 2°48.775 8.5 357 13.9 102150 76
2006-06-28 07:29:47 51°18.252 2°48.744 7.6 355 13.9 102150 76
2006-06-28 07:29:52 51°18.261 2°48.718 7.2 355 13.9 102150 76
2006-06-28 07:29:54 51°18.265 2°48.708 8.2 354 13.9 102150 75
2006-06-28 07:30:01 51°18.279 2°48.672 7.9 354 13.9 102150 75
2006-06-28 07:30:07 51°18.29 2°48.642 7.6 353 13.9 102140 75
2006-06-28 07:30:11 51°18.298 2°48.622 8.4 354 13.9 102140 76
2006-06-28 07:30:17 51°18.31 2°48.592 8.4 352 13.9 102140 76
2006-06-28 07:30:21 51°18.318 2°48.572 8.6 352 13.9 102150 76
2006-06-28 07:30:27 51°18.33 2°48.541 7.5 353 13.9 102150 76
2006-06-28 07:30:31 51°18.337 2°48.52 7.7 353 13.9 102150 77
2006-06-28 07:30:37 51°18.349 2°48.489 7.5 353 13.9 102150 77
2006-06-28 07:30:42 51°18.358 2°48.465 8.5 348 13.9 102150 77
2006-06-28 07:30:46 51°18.366 2°48.444 8.8 352 13.9 102150 77
2006-06-28 07:30:51 51°18.375 2°48.419 8.5 351 13.9 102150 77
2006-06-28 07:30:57 51°18.387 2°48.388 8.1 352 13.9 102150 77
2006-06-28 07:31:01 51°18.394 2°48.367 8.2 351 13.9 102150 77
2006-06-28 07:31:05 51°18.402 2°48.347 8.4 279 13.9 102150 77
2006-06-28 07:31:10 51°18.412 2°48.321 8.8 350 13.9 102150 76
2006-06-28 07:31:17 51°18.426 2°48.285 8.8 350 13.9 102150 76
2006-06-28 07:31:21 51°18.434 2°48.265 8.8 351 13.9 102140 76
2006-06-28 07:31:26 51°18.444 2°48.24 7.6 352 13.9 102140 76
2006-06-28 07:31:31 51°18.453 2°48.214 7.6 351 13.9 102140 76
2006-06-28 07:31:35 51°18.461 2°48.193 6.9 352 13.9 102150 76
2006-06-28 07:31:41 51°18.472 2°48.162 7.4 351 13.9 102150 76
2006-06-28 07:31:45 51°18.479 2°48.141 7.8 354 13.9 102150 76
2006-06-28 07:31:51 51°18.489 2°48.108 7.1 355 13.9 102150 76
2006-06-28 07:31:56 51°18.497 2°48.081 7.4 354 13.9 102150 76
2006-06-28 07:32:01 51°18.504 2°48.053 8.2 355 13.9 102160 76
2006-06-28 07:32:04 51°18.509 2°48.036 8 354 13.9 102160 76
2006-06-28 07:32:11 51°18.518 2°47.997 8.1 356 13.9 102150 76
2006-06-28 07:32:17 51°18.527 2°47.963 8 357 13.9 102150 76
2006-06-28 07:32:21 51°18.532 2°47.94 8.2 358 13.9 102150 76
2006-06-28 07:32:27 51°18.541 2°47.906 8.3 358 13.9 102150 77
2006-06-28 07:32:31 51°18.546 2°47.884 8.2 355 13.9 102150 76
2006-06-28 07:32:35 51°18.553 2°47.862 8 358 13.9 102150 76
2006-06-28 07:32:41 51°18.562 2°47.829 7.8 356 13.9 102150 76
2006-06-28 07:32:45 51°18.569 2°47.807 7.4 354 13.9 102150 77
2006-06-28 07:32:50 51°18.577 2°47.781 8 354 13.9 102140 77
2006-06-28 07:32:57 51°18.589 2°47.743 7.4 353 13.9 102140 77
2006-06-28 07:33:01 51°18.596 2°47.721 7.9 353 13.9 102140 77
2006-06-28 07:33:05 51°18.603 2°47.7 7.9 354 13.9 102140 76
2006-06-28 07:33:11 51°18.612 2°47.666 7.1 352 13.9 102150 77
2006-06-28 07:33:17 51°18.623 2°47.634 8.1 352 13.9 102150 77
2006-06-28 07:33:21 51°18.629 2°47.612 8.3 355 13.9 102150 77
2006-06-28 07:33:25 51°18.636 2°47.59 7.6 355 13.9 102150 77
2006-06-28 07:33:31 51°18.645 2°47.558 7.6 351 13.9 102150 77
2006-06-28 07:33:34 51°18.651 2°47.541 8.3 354 13.9 102140 76
2006-06-28 07:33:41 51°18.662 2°47.504 8.1 355 13.9 102150 76
2006-06-28 07:33:46 51°18.671 2°47.478 7.6 354 13.9 102150 76
2006-06-28 07:33:51 51°18.68 2°47.451 7.5 355 13.9 102150 76
2006-06-28 07:33:57 51°18.69 2°47.419 8.3 352 13.9 102150 76
2006-06-28 07:34:01 51°18.698 2°47.398 8.8 352 13.9 102150 76
2006-06-28 07:34:06 51°18.706 2°47.372 8.4 355 13.9 102150 76
2006-06-28 07:34:11 51°18.714 2°47.345 8.3 356 13.9 102150 76
2006-06-28 07:34:15 51°18.721 2°47.323 9.3 356 13.9 102150 76
2006-06-28 07:34:22 51°18.732 2°47.286 9.5 355 13.9 102140 76
2006-06-28 07:34:27 51°18.741 2°47.259 8.9 354 13.9 102140 76
2006-06-28 07:34:31 51°18.748 2°47.238 8.9 354 13.9 102140 76
2006-06-28 07:34:35 51°18.755 2°47.216 8.1 354 13.9 102140 76
2006-06-28 07:34:42 51°18.766 2°47.179 8.9 353 13.9 102140 76
2006-06-28 07:34:47 51°18.775 2°47.152 8.5 354 13.9 102140 76
2006-06-28 07:34:51 51°18.781 2°47.13 8.5 354 14 102140 76
2006-06-28 07:34:55 51°18.788 2°47.109 7.9 355 14 102140 76
2006-06-28 07:35:01 51°18.799 2°47.077 7.2 355 13.9 102150 76
2006-06-28 07:35:07 51°18.809 2°47.044 7.6 352 13.9 102150 76
2006-06-28 07:35:10 51°18.814 2°47.028 7.6 352 13.9 102140 76
2006-06-28 07:35:15 51°18.823 2°47.001 7.9 354 13.9 102140 76
2006-06-28 07:35:20 51°18.831 2°46.973 7.5 354 13.9 102140 76
2006-06-28 07:35:25 51°18.84 2°46.947 7.9 352 13.9 102140 76
2006-06-28 07:35:31 51°18.85 2°46.914 9.1 352 13.9 102140 76
2006-06-28 07:35:35 51°18.857 2°46.893 8.7 358 13.9 102140 76
2006-06-28 07:35:40 51°18.865 2°46.865 7.7 355 13.9 102150 76
2006-06-28 07:35:47 51°18.877 2°46.827 8.2 355 13.9 102150 76
2006-06-28 07:35:51 51°18.883 2°46.805 7.9 359 14 102150 77
2006-06-28 07:35:57 51°18.894 2°46.772 7.6 353 14 102150 77
2006-06-28 07:36:02 51°18.902 2°46.745 8.4 358 14 102150 77
2006-06-28 07:36:06 51°18.909 2°46.723 7.1 356 13.9 102140 77
2006-06-28 07:36:11 51°18.917 2°46.696 7.6 357 13.9 102150 77
2006-06-28 07:36:15 51°18.924 2°46.674 7.9 354 13.9 102150 77
2006-06-28 07:36:19 51°18.931 2°46.652 7.8 355 13.9 102140 77
2006-06-28 07:36:27 51°18.944 2°46.608 8 355 13.9 102140 77
2006-06-28 07:36:31 51°18.951 2°46.586 7.6 356 13.9 102150 77
2006-06-28 07:36:37 51°18.961 2°46.552 8.4 358 13.9 102150 77
2006-06-28 07:36:42 51°18.969 2°46.524 8.2 353 13.9 102140 77
2006-06-28 07:36:47 51°18.978 2°46.497 8.9 356 13.9 102140 77
2006-06-28 07:36:51 51°18.984 2°46.475 8.4 354 13.9 102140 78
2006-06-28 07:36:55 51°18.991 2°46.454 8.7 279 13.9 102140 78
2006-06-28 07:37:02 51°19.003 2°46.415 8.7 353 13.9 102140 78
2006-06-28 07:37:07 51°19.012 2°46.387 10.7 356 13.9 102140 78
2006-06-28 07:37:11 51°19.019 2°46.365 9.6 358 14 102140 78
2006-06-28 07:37:17 51°19.029 2°46.333 9.5 354 14 102140 78
2006-06-28 07:37:22 51°19.037 2°46.306 9.7 356 14 102140 78
2006-06-28 07:37:27 51°19.046 2°46.278 9 355 14 102140 78
2006-06-28 07:37:31 51°19.052 2°46.256 9.2 356 14 102140 78
2006-06-28 07:37:35 51°19.059 2°46.234 10.2 354 14 102140 78
2006-06-28 07:37:38 51°19.064 2°46.218 9.8 355 14 102140 78
2006-06-28 07:37:47 51°19.08 2°46.169 9.1 356 14 102140 78
2006-06-28 07:37:51 51°19.087 2°46.147 9.7 356 13.9 102140 77
2006-06-28 07:37:57 51°19.097 2°46.115 8.7 355 13.9 102140 77
2006-06-28 07:38:01 51°19.104 2°46.093 8.6 357 13.9 102130 77
2006-06-28 07:38:06 51°19.113 2°46.066 8.9 359 13.9 102130 77
2006-06-28 07:38:11 51°19.122 2°46.038 8.6 358 13.9 102130 76
2006-06-28 07:38:17 51°19.132 2°46.006 8.4 359 13.9 102130 76
2006-06-28 07:38:21 51°19.139 2°45.984 8.4 359 13.9 102140 76
2006-06-28 07:38:27 51°19.149 2°45.951 8 357 13.9 102140 76
2006-06-28 07:38:31 51°19.156 2°45.93 7.7 357 13.9 102140 76
2006-06-28 07:38:35 51°19.163 2°45.908 8 354 13.9 102140 76
2006-06-28 07:38:42 51°19.175 2°45.869 8.5 354 13.9 102140 76
2006-06-28 07:38:47 51°19.184 2°45.843 7.8 357 13.9 102140 76
2006-06-28 07:38:51 51°19.191 2°45.821 7.2 355 13.9 102150 76
2006-06-28 07:38:55 51°19.198 2°45.799 7.9 353 13.9 102150 76
2006-06-28 07:39:02 51°19.21 2°45.76 8.3 355 13.9 102150 76
2006-06-28 07:39:07 51°19.218 2°45.733 7.6 353 13.9 102150 76
2006-06-28 07:39:11 51°19.225 2°45.711 7.7 358 13.9 102150 76
2006-06-28 07:39:15 51°19.232 2°45.69 8.5 358 13.9 102150 76
2006-06-28 07:39:22 51°19.245 2°45.651 7.7 356 13.9 102150 76
2006-06-28 07:39:27 51°19.253 2°45.624 8.3 358 13.9 102140 76
2006-06-28 07:39:31 51°19.26 2°45.603 7.6 357 13.9 102150 76
2006-06-28 07:39:37 51°19.271 2°45.57 8 357 13.9 102150 76
2006-06-28 07:39:41 51°19.278 2°45.548 8.7 355 13.9 102150 76
2006-06-28 07:39:47 51°19.289 2°45.516 8.9 355 13.9 102140 77
2006-06-28 07:39:51 51°19.296 2°45.494 9 356 13.9 102140 77
2006-06-28 07:39:57 51°19.307 2°45.461 8.3 354 13.9 102140 77
2006-06-28 07:40:02 51°19.315 2°45.435 8.3 356 13.9 102140 77
2006-06-28 07:40:06 51°19.323 2°45.413 7.9 355 13.9 102150 77
2006-06-28 07:40:11 51°19.331 2°45.386 8.5 356 13.9 102140 76
2006-06-28 07:40:17 51°19.342 2°45.354 7.2 350 13.9 102140 76
2006-06-28 07:40:21 51°19.349 2°45.332 8.2 353 13.9 102140 75
2006-06-28 07:40:25 51°19.357 2°45.311 8.3 353 13.9 102140 75
2006-06-28 07:40:30 51°19.366 2°45.284 9 352 13.9 102150 76
2006-06-28 07:40:37 51°19.379 2°45.246 8.8 354 13.9 102150 76
2006-06-28 07:40:41 51°19.386 2°45.225 8.6 355 13.9 102160 76
2006-06-28 07:40:46 51°19.394 2°45.198 9.1 356 13.9 102160 76
2006-06-28 07:40:51 51°19.404 2°45.171 8.2 355 13.9 102150 76
2006-06-28 07:40:55 51°19.411 2°45.149 8.1 357 13.9 102150 76
2006-06-28 07:41:02 51°19.424 2°45.111 7.5 357 13.9 102150 76
2006-06-28 07:41:07 51°19.433 2°45.083 8.3 353 13.9 102150 76
2006-06-28 07:41:11 51°19.44 2°45.06 7.4 355 13.8 102140 75
2006-06-28 07:41:15 51°19.447 2°45.039 7.2 353 13.8 102140 75
2006-06-28 07:41:21 51°19.457 2°45.005 7.5 355 13.8 102150 74
2006-06-28 07:41:26 51°19.466 2°44.977 8.3 352 13.8 102150 74
2006-06-28 07:41:31 51°19.474 2°44.949 8.3 351 13.8 102150 75
2006-06-28 07:41:37 51°19.483 2°44.915 9.3 355 13.8 102150 75
2006-06-28 07:41:41 51°19.49 2°44.892 8.4 353 13.8 102150 75
2006-06-28 07:41:47 51°19.499 2°44.859 9.1 359 13.9 102150 76
2006-06-28 07:41:51 51°19.505 2°44.837 8.2 357 13.9 102150 76
2006-06-28 07:41:55 51°19.512 2°44.814 8.7 357 13.9 102150 76
2006-06-28 07:42:01 51°19.521 2°44.781 8.8 356 13.9 102140 76
2006-06-28 07:42:05 51°19.528 2°44.759 10 355 13.9 102140 76
2006-06-28 07:42:11 51°19.537 2°44.727 9.3 357 13.9 102150 77
2006-06-28 07:42:17 51°19.547 2°44.694 8.8 357 13.9 102150 77
2006-06-28 07:42:21 51°19.553 2°44.672 8.3 358 13.9 102150 77
2006-06-28 07:42:25 51°19.56 2°44.65 7.9 356 13.9 102150 77
2006-06-28 07:42:31 51°19.568 2°44.616 7.9 356 13.9 102140 77
2006-06-28 07:42:37 51°19.577 2°44.583 7.3 354 13.9 102140 77
2006-06-28 07:42:42 51°19.584 2°44.554 7.3 355 13.9 102150 76
2006-06-28 07:42:47 51°19.59 2°44.526 6.8 352 13.9 102150 76
2006-06-28 07:42:50 51°19.595 2°44.509 7.7 355 13.8 102150 76
2006-06-28 07:42:57 51°19.605 2°44.47 7.6 354 13.8 102150 76
2006-06-28 07:43:01 51°19.611 2°44.448 8.4 355 13.9 102150 77
2006-06-28 07:43:05 51°19.617 2°44.427 9.2 356 13.9 102150 77
2006-06-28 07:43:11 51°19.627 2°44.394 9.2 358 13.9 102160 76
2006-06-28 07:43:14 51°19.631 2°44.377 8.7 358 13.9 102160 76
2006-06-28 07:43:22 51°19.643 2°44.333 8.5 359 13.8 102150 76
2006-06-28 07:43:27 51°19.65 2°44.304 8.3 358 13.8 102150 76
2006-06-28 07:43:31 51°19.655 2°44.282 8.3 358 13.8 102150 77
2006-06-28 07:43:34 51°19.659 2°44.265 8.7 358 13.8 102150 77
2006-06-28 07:43:41 51°19.669 2°44.225 8.5 359 13.8 102150 76
2006-06-28 07:43:46 51°19.675 2°44.196 8.1 358 13.8 102150 76
2006-06-28 07:43:51 51°19.682 2°44.168 7.8 359 13.8 102150 76
2006-06-28 07:43:57 51°19.69 2°44.133 7.5 358 13.8 102150 76
2006-06-28 07:44:02 51°19.696 2°44.105 6.8 358 13.8 102150 76
2006-06-28 07:44:07 51°19.703 2°44.076 7.7 355 13.8 102150 76
2006-06-28 07:44:11 51°19.708 2°44.052 7.8 357 13.8 102150 76
2006-06-28 07:44:15 51°19.713 2°44.029 7.6 357 13.8 102150 76
2006-06-28 07:44:21 51°19.721 2°43.995 6.8 359 13.8 102150 76
2006-06-28 07:44:23 51°19.724 2°43.983 7.2 358 13.8 102150 76
2006-06-28 07:44:31 51°19.735 2°43.937 7.9 357 13.8 102150 76
2006-06-28 07:44:37 51°19.743 2°43.903 7.5 359 13.8 102150 76
2006-06-28 07:44:41 51°19.749 2°43.88 7.8 358 13.8 102160 76
2006-06-28 07:44:45 51°19.754 2°43.856 7.6 358 13.8 102160 76
2006-06-28 07:44:50 51°19.761 2°43.827 7 359 13.8 102160 77
2006-06-28 07:44:57 51°19.77 2°43.787 6.9 358 13.8 102160 77
2006-06-28 07:45:02 51°19.777 2°43.758 7.2 358 13.8 102160 77
2006-06-28 07:45:06 51°19.783 2°43.735 7.3 358 13.8 102160 76
2006-06-28 07:45:11 51°19.789 2°43.706 7 357 13.8 102160 76
2006-06-28 07:45:17 51°19.798 2°43.671 7.6 358 13.8 102160 76
2006-06-28 07:45:22 51°19.804 2°43.642 8.3 354 13.8 102160 76
2006-06-28 07:45:27 51°19.811 2°43.613 7.9 355 13.8 102160 76
2006-06-28 07:45:32 51°19.817 2°43.584 8.5 354 13.8 102160 76
2006-06-28 07:45:36 51°19.822 2°43.56 8.4 356 13.8 102160 76
2006-06-28 07:45:41 51°19.829 2°43.532 7.7 356 13.8 102160 77
2006-06-28 07:45:44 51°19.833 2°43.514 7.7 356 13.8 102160 77
2006-06-28 07:45:51 51°19.841 2°43.473 7.8 355 13.9 102160 77
2006-06-28 07:45:55 51°19.846 2°43.449 7.8 357 13.9 102160 77
2006-06-28 07:45:58 51°19.849 2°43.432 8.6 357 13.8 102150 77
2006-06-28 07:46:07 51°19.86 2°43.379 7.7 357 13.8 102150 77
2006-06-28 07:46:11 51°19.865 2°43.355 7.5 358 13.9 102160 77
2006-06-28 07:46:16 51°19.872 2°43.326 7.4 356 13.9 102160 77
2006-06-28 07:46:21 51°19.878 2°43.297 6.9 356 13.9 102160 77
2006-06-28 07:46:25 51°19.883 2°43.273 7.3 354 13.9 102160 77
2006-06-28 07:46:31 51°19.89 2°43.238 7.4 354 13.8 102160 77
2006-06-28 07:46:37 51°19.898 2°43.203 7 357 13.8 102160 77
2006-06-28 07:46:42 51°19.904 2°43.174 6.4 355 13.8 102160 77
2006-06-28 07:46:47 51°19.911 2°43.144 6.3 353 13.8 102160 77
2006-06-28 07:46:51 51°19.916 2°43.121 6.7 355 13.8 102160 77
2006-06-28 07:46:57 51°19.924 2°43.086 6.5 353 13.8 102160 77
2006-06-28 07:47:01 51°19.929 2°43.062 7.2 353 13.8 102160 77
2006-06-28 07:47:06 51°19.936 2°43.034 6.8 354 13.8 102160 77
2006-06-28 07:47:11 51°19.942 2°43.004 6.7 355 13.8 102160 77
2006-06-28 07:47:17 51°19.95 2°42.969 6.4 355 13.8 102170 77
2006-06-28 07:47:18 51°19.952 2°42.964 6 352 13.8 102170 77
2006-06-28 07:47:27 51°19.963 2°42.911 7.3 354 13.8 102170 77
2006-06-28 07:47:31 51°19.969 2°42.888 7.1 355 13.8 102160 77
2006-06-28 07:47:36 51°19.976 2°42.859 7.9 355 13.8 102160 77
2006-06-28 07:47:42 51°19.983 2°42.824 8.5 352 13.8 102160 77
2006-06-28 07:47:47 51°19.99 2°42.795 8.6 354 13.8 102160 77
2006-06-28 07:47:51 51°19.995 2°42.771 8.8 355 13.8 102160 77
2006-06-28 07:47:55 51°20 2°42.748 8.2 356 13.8 102160 77
2006-06-28 07:48:02 51°20.009 2°42.708 8 356 13.8 102170 78
2006-06-28 07:48:07 51°20.015 2°42.678 7.6 355 13.8 102170 78
2006-06-28 07:48:11 51°20.02 2°42.655 7.1 356 13.8 102170 77
2006-06-28 07:48:16 51°20.026 2°42.626 8.1 354 13.8 102170 77
2006-06-28 07:48:21 51°20.033 2°42.597 8.3 356 13.8 102160 77
2006-06-28 07:48:27 51°20.041 2°42.562 7.3 352 13.8 102160 77
2006-06-28 07:48:31 51°20.046 2°42.539 7 352 13.8 102170 77
2006-06-28 07:48:37 51°20.054 2°42.504 7.9 353 13.8 102170 77
2006-06-28 07:48:42 51°20.06 2°42.475 7.2 353 13.8 102170 77
2006-06-28 07:48:47 51°20.066 2°42.446 7.1 353 13.8 102170 77
2006-06-28 07:48:51 51°20.072 2°42.423 6.7 353 13.8 102170 77
2006-06-28 07:48:57 51°20.079 2°42.388 7.1 354 13.8 102170 77
2006-06-28 07:49:01 51°20.085 2°42.365 7.1 349 13.8 102160 77
2006-06-28 07:49:05 51°20.09 2°42.341 6.3 354 13.8 102160 77
2006-06-28 07:49:11 51°20.098 2°42.306 6.1 354 13.7 102160 77
2006-06-28 07:49:17 51°20.106 2°42.272 7.2 349 13.7 102160 77
2006-06-28 07:49:21 51°20.11 2°42.248 6.9 351 13.7 102170 77
2006-06-28 07:49:25 51°20.116 2°42.225 6.5 351 13.7 102170 77
2006-06-28 07:49:31 51°20.122 2°42.189 6.5 351 13.7 102170 77
2006-06-28 07:49:37 51°20.129 2°42.153 6.4 348 13.7 102170 77
2006-06-28 07:49:41 51°20.133 2°42.129 6.7 350 13.7 102170 77
2006-06-28 07:49:47 51°20.141 2°42.094 6.8 351 13.7 102170 77
2006-06-28 07:49:51 51°20.145 2°42.07 6.9 350 13.7 102170 77
2006-06-28 07:49:55 51°20.15 2°42.047 6.7 352 13.7 102170 77
2006-06-28 07:50:01 51°20.158 2°42.012 6.4 351 13.7 102170 77
2006-06-28 07:50:06 51°20.164 2°41.982 6.9 351 13.7 102170 77
2006-06-28 07:50:11 51°20.171 2°41.953 7.1 352 13.8 102180 78
2006-06-28 07:50:15 51°20.176 2°41.93 7 354 13.8 102180 78
2006-06-28 07:50:22 51°20.185 2°41.888 6.8 351 13.8 102170 78
2006-06-28 07:50:27 51°20.191 2°41.859 6.8 350 13.8 102170 78
2006-06-28 07:50:31 51°20.196 2°41.836 7.6 349 13.8 102170 78
2006-06-28 07:50:36 51°20.203 2°41.806 7.5 352 13.8 102170 78
2006-06-28 07:50:41 51°20.209 2°41.777 7.3 352 13.8 102170 78
2006-06-28 07:50:47 51°20.217 2°41.742 6.4 352 13.8 102170 78
2006-06-28 07:50:51 51°20.221 2°41.719 6.4 350 13.8 102180 78
2006-06-28 07:50:57 51°20.227 2°41.683 6.2 354 13.8 102180 78
2006-06-28 07:51:01 51°20.23 2°41.659 6.4 348 13.8 102170 78
2006-06-28 07:51:05 51°20.234 2°41.634 6.9 350 13.8 102170 78
2006-06-28 07:51:11 51°20.238 2°41.597 6.2 350 13.8 102170 78
2006-06-28 07:51:16 51°20.242 2°41.567 6.3 351 13.8 102170 78
2006-06-28 07:51:22 51°20.246 2°41.53 6.5 349 13.8 102180 78
2006-06-28 07:51:25 51°20.249 2°41.512 6.6 349 13.8 102180 78
2006-06-28 07:51:31 51°20.253 2°41.475 7 348 13.8 102180 78
2006-06-28 07:51:36 51°20.257 2°41.445 7.2 349 13.8 102180 78
2006-06-28 07:51:41 51°20.261 2°41.415 7 349 13.8 102180 78
2006-06-28 07:51:45 51°20.264 2°41.391 6.4 279 13.8 102180 78
2006-06-28 07:51:51 51°20.268 2°41.355 6.3 350 13.8 102180 78
2006-06-28 07:51:57 51°20.273 2°41.318 6.2 351 13.8 102180 78
2006-06-28 07:52:01 51°20.276 2°41.294 5.9 351 13.8 102180 78
2006-06-28 07:52:05 51°20.279 2°41.27 6.4 351 13.8 102180 78
2006-06-28 07:52:11 51°20.283 2°41.233 5.7 349 13.7 102180 77
2006-06-28 07:52:16 51°20.288 2°41.203 6 347 13.7 102180 77
2006-06-28 07:52:21 51°20.292 2°41.172 6.4 351 13.9 102180 77
2006-06-28 07:52:27 51°20.297 2°41.136 6.2 280 13.9 102180 77
2006-06-28 07:52:31 51°20.3 2°41.111 5.9 348 13.8 102180 77
2006-06-28 07:52:37 51°20.306 2°41.075 6 283 13.8 102180 77
2006-06-28 07:52:42 51°20.31 2°41.044 7.5 349 13.7 102180 77
2006-06-28 07:52:47 51°20.314 2°41.013 6.4 280 13.7 102180 77
2006-06-28 07:52:51 51°20.316 2°40.989 6.7 351 13.7 102180 77
2006-06-28 07:52:55 51°20.319 2°40.964 6.5 350 13.7 102180 77
2006-06-28 07:53:01 51°20.323 2°40.927 6 349 13.7 102180 77
2006-06-28 07:53:05 51°20.325 2°40.902 6.5 350 13.7 102180 77
2006-06-28 07:53:10 51°20.328 2°40.871 6.3 350 13.7 102180 77
2006-06-28 07:53:17 51°20.332 2°40.827 6.1 278 13.7 102180 77
2006-06-28 07:53:21 51°20.335 2°40.802 5.8 348 13.7 102180 77
2006-06-28 07:53:25 51°20.337 2°40.778 6 346 13.7 102180 77
2006-06-28 07:53:31 51°20.341 2°40.74 5.4 348 13.7 102180 77
2006-06-28 07:53:37 51°20.345 2°40.703 5.3 348 13.7 102180 77
2006-06-28 07:53:41 51°20.348 2°40.678 4.7 349 13.7 102190 77
2006-06-28 07:53:47 51°20.352 2°40.641 5.5 281 13.7 102190 77
2006-06-28 07:53:51 51°20.356 2°40.617 5.4 351 13.7 102180 76
2006-06-28 07:53:57 51°20.36 2°40.58 5.4 282 13.7 102180 76
2006-06-28 07:54:01 51°20.363 2°40.556 5.8 350 13.7 102180 76
2006-06-28 07:54:07 51°20.367 2°40.519 5.7 351 13.7 102180 76
2006-06-28 07:54:11 51°20.37 2°40.494 5.8 350 13.7 102190 76
2006-06-28 07:54:17 51°20.374 2°40.458 5.7 348 13.7 102190 76
2006-06-28 07:54:22 51°20.377 2°40.427 6.7 351 13.7 102190 76
2006-06-28 07:54:27 51°20.381 2°40.396 6.7 359 13.7 102190 76
2006-06-28 07:54:31 51°20.384 2°40.371 6.2 357 13.7 102180 76
2006-06-28 07:54:37 51°20.388 2°40.335 5.9 358 13.7 102180 76
2006-06-28 07:54:42 51°20.391 2°40.304 5.5 358 13.7 102190 77
2006-06-28 07:54:47 51°20.395 2°40.273 6 358 13.7 102190 77
2006-06-28 07:54:51 51°20.398 2°40.249 6.2 356 13.7 102180 77
2006-06-28 07:54:56 51°20.401 2°40.218 6.3 358 13.7 102180 77
2006-06-28 07:55:02 51°20.404 2°40.181 5.9 1 13.8 102180 77
2006-06-28 07:55:07 51°20.407 2°40.151 5.2 356 13.8 102180 77
2006-06-28 07:55:11 51°20.409 2°40.126 5.3 356 13.8 102180 77
2006-06-28 07:55:17 51°20.413 2°40.089 5.3 -999 13.8 102180 77
2006-06-28 07:55:21 51°20.415 2°40.065 5.2 356 13.7 102180 77
2006-06-28 07:55:27 51°20.418 2°40.028 4.6 355 13.7 102180 77
2006-06-28 07:55:32 51°20.422 2°39.997 5.2 357 13.7 102190 77
2006-06-28 07:55:37 51°20.424 2°39.967 5.5 355 13.7 102190 77
2006-06-28 07:55:41 51°20.426 2°39.942 5.6 353 13.7 102190 76
2006-06-28 07:55:47 51°20.43 2°39.905 5.5 357 13.7 102190 76
2006-06-28 07:55:52 51°20.432 2°39.874 4.8 354 13.7 102190 76
2006-06-28 07:55:57 51°20.435 2°39.844 4.7 354 13.7 102190 76
2006-06-28 07:56:01 51°20.436 2°39.819 4.7 353 13.7 102190 76
2006-06-28 07:56:06 51°20.44 2°39.788 5.2 357 13.7 102180 77
2006-06-28 07:56:12 51°20.443 2°39.75 5.4 355 13.7 102180 77
2006-06-28 07:56:17 51°20.446 2°39.72 6.4 -999 13.7 102190 77
2006-06-28 07:56:21 51°20.449 2°39.695 5.8 1 13.7 102190 77
2006-06-28 07:56:27 51°20.452 2°39.658 6.3 359 13.7 102190 77
2006-06-28 07:56:31 51°20.455 2°39.634 6.5 359 13.7 102190 77
2006-06-28 07:56:37 51°20.459 2°39.597 5.8 358 13.7 102190 77
2006-06-28 07:56:42 51°20.462 2°39.566 7.5 357 13.7 102190 77
2006-06-28 07:56:47 51°20.465 2°39.535 6.9 356 13.8 102190 77
2006-06-28 07:56:51 51°20.467 2°39.51 6.7 353 13.8 102190 77
2006-06-28 07:56:56 51°20.47 2°39.479 6.6 355 13.8 102180 78
2006-06-28 07:57:01 51°20.473 2°39.448 6.3 356 13.8 102180 78
2006-06-28 07:57:07 51°20.476 2°39.411 7.2 356 13.8 102190 77
2006-06-28 07:57:11 51°20.478 2°39.386 6.9 355 13.8 102190 77
2006-06-28 07:57:17 51°20.482 2°39.349 6.6 355 13.8 102180 77
2006-06-28 07:57:22 51°20.485 2°39.318 6.4 352 13.8 102180 77
2006-06-28 07:57:27 51°20.487 2°39.287 6.4 356 13.8 102180 77
2006-06-28 07:57:32 51°20.49 2°39.255 6.1 355 13.8 102180 77
2006-06-28 07:57:37 51°20.493 2°39.225 5.8 357 13.8 102180 77
2006-06-28 07:57:42 51°20.496 2°39.193 5.7 353 13.8 102180 77
2006-06-28 07:57:47 51°20.5 2°39.163 5.7 353 13.8 102190 78
2006-06-28 07:57:51 51°20.502 2°39.138 6.3 354 13.8 102190 77
2006-06-28 07:57:57 51°20.506 2°39.101 6.8 354 13.8 102190 77
2006-06-28 07:58:01 51°20.508 2°39.075 6.9 355 13.8 102190 77
2006-06-28 07:58:07 51°20.512 2°39.038 5.9 352 13.8 102190 77
2006-06-28 07:58:12 51°20.515 2°39.006 6 351 13.8 102190 77
2006-06-28 07:58:17 51°20.518 2°38.976 6.2 348 13.8 102190 77
2006-06-28 07:58:21 51°20.52 2°38.951 6 351 13.8 102190 77
2006-06-28 07:58:26 51°20.523 2°38.919 5.9 352 13.8 102200 77
2006-06-28 07:58:32 51°20.526 2°38.882 5.9 351 13.8 102200 77
2006-06-28 07:58:37 51°20.53 2°38.85 6.7 355 13.8 102190 77
2006-06-28 07:58:42 51°20.532 2°38.819 6.6 354 13.8 102190 77
2006-06-28 07:58:47 51°20.535 2°38.788 6.7 355 13.8 102190 77
2006-06-28 07:58:51 51°20.538 2°38.763 6.5 352 13.8 102190 77
2006-06-28 07:58:57 51°20.541 2°38.725 6.9 358 13.8 102200 78
2006-06-28 07:59:02 51°20.544 2°38.693 6.3 356 13.8 102200 78
2006-06-28 07:59:07 51°20.547 2°38.662 6.6 357 13.8 102190 78
2006-06-28 07:59:11 51°20.549 2°38.637 6.4 353 13.8 102190 78
2006-06-28 07:59:17 51°20.553 2°38.599 6.8 355 13.8 102190 78
2006-06-28 07:59:22 51°20.557 2°38.568 7 350 13.8 102190 78
2006-06-28 07:59:27 51°20.56 2°38.537 6.9 350 13.8 102190 78
2006-06-28 07:59:31 51°20.563 2°38.512 6.8 350 13.8 102190 78
2006-06-28 07:59:37 51°20.567 2°38.474 6.5 349 13.8 102190 78
2006-06-28 07:59:41 51°20.57 2°38.449 7 348 13.8 102190 78
2006-06-28 07:59:47 51°20.574 2°38.411 6.6 278 13.8 102190 78
2006-06-28 07:59:50 51°20.576 2°38.392 6.3 349 13.8 102190 78
2006-06-28 07:59:57 51°20.58 2°38.348 6.1 347 13.7 102190 77
2006-06-28 08:00:01 51°20.583 2°38.323 6.1 351 13.7 102190 77
2006-06-28 08:00:07 51°20.586 2°38.286 6.2 347 13.7 102190 77
2006-06-28 08:00:11 51°20.589 2°38.261 5.3 348 13.7 102200 78
2006-06-28 08:00:17 51°20.592 2°38.223 5.5 346 13.7 102200 78
2006-06-28 08:00:22 51°20.595 2°38.191 5.7 345 13.7 102200 78
2006-06-28 08:00:26 51°20.597 2°38.166 6.1 351 13.7 102200 78
2006-06-28 08:00:31 51°20.601 2°38.134 6.3 348 13.7 102200 78
2006-06-28 08:00:37 51°20.604 2°38.097 5.9 353 13.7 102190 78
2006-06-28 08:00:41 51°20.607 2°38.072 6.6 355 13.7 102190 78
2006-06-28 08:00:47 51°20.611 2°38.034 6 355 13.7 102190 78
2006-06-28 08:00:52 51°20.614 2°38.002 6.5 354 13.7 102200 78
2006-06-28 08:00:57 51°20.617 2°37.971 6.2 354 13.7 102200 78
2006-06-28 08:01:02 51°20.62 2°37.939 5.5 354 13.7 102200 78
2006-06-28 08:01:06 51°20.623 2°37.914 6 348 13.7 102200 79
2006-06-28 08:01:11 51°20.626 2°37.882 6 354 13.7 102200 79
2006-06-28 08:01:17 51°20.63 2°37.845 5.7 352 13.7 102190 78
2006-06-28 08:01:22 51°20.634 2°37.813 6.2 352 13.7 102190 78
2006-06-28 08:01:27 51°20.637 2°37.782 6.1 355 13.7 102200 78
2006-06-28 08:01:31 51°20.64 2°37.757 6.1 354 13.7 102200 78
2006-06-28 08:01:37 51°20.645 2°37.719 5.7 355 13.7 102200 78
2006-06-28 08:01:42 51°20.648 2°37.688 5.3 353 13.7 102200 78
2006-06-28 08:01:47 51°20.651 2°37.656 5.8 350 13.7 102200 78
2006-06-28 08:01:51 51°20.654 2°37.631 6.4 352 13.7 102200 78
2006-06-28 08:01:57 51°20.658 2°37.593 5.4 353 13.7 102200 78
2006-06-28 08:02:02 51°20.661 2°37.562 5.9 356 13.7 102200 78
2006-06-28 08:02:07 51°20.664 2°37.531 6.1 351 13.7 102200 78
2006-06-28 08:02:11 51°20.667 2°37.506 6.4 355 13.7 102200 78
2006-06-28 08:02:17 51°20.671 2°37.468 5.8 357 13.7 102200 78
2006-06-28 08:02:21 51°20.674 2°37.443 5.2 351 13.7 102200 78
2006-06-28 08:02:27 51°20.678 2°37.405 6.2 356 13.7 102210 78
2006-06-28 08:02:30 51°20.679 2°37.386 5.9 358 13.7 102200 78
2006-06-28 08:02:37 51°20.684 2°37.341 5.4 349 13.7 102200 78
2006-06-28 08:02:42 51°20.687 2°37.31 5.9 355 13.7 102200 78
2006-06-28 08:02:47 51°20.69 2°37.278 5.4 351 13.7 102200 78
2006-06-28 08:02:52 51°20.694 2°37.247 5.9 353 13.7 102200 78
2006-06-28 08:02:57 51°20.697 2°37.215 5.3 347 13.7 102200 78
2006-06-28 08:03:01 51°20.7 2°37.19 6.1 352 13.7 102200 78
2006-06-28 08:03:07 51°20.703 2°37.152 5.8 352 13.7 102200 78
2006-06-28 08:03:10 51°20.706 2°37.133 5.3 352 13.7 102200 78
2006-06-28 08:03:17 51°20.71 2°37.089 5.1 278 13.7 102200 78
2006-06-28 08:03:22 51°20.714 2°37.058 5.4 349 13.7 102200 78
2006-06-28 08:03:27 51°20.717 2°37.027 5.7 354 13.7 102210 77
2006-06-28 08:03:31 51°20.72 2°37.002 5.4 351 13.7 102210 77
2006-06-28 08:03:36 51°20.723 2°36.97 6 352 13.7 102200 77
2006-06-28 08:03:41 51°20.726 2°36.939 6.4 353 13.7 102200 77
2006-06-28 08:03:47 51°20.73 2°36.901 6.1 351 13.7 102210 77
2006-06-28 08:03:51 51°20.732 2°36.876 6.3 355 13.7 102210 77
2006-06-28 08:03:56 51°20.735 2°36.844 5.9 354 13.7 102200 77
2006-06-28 08:04:02 51°20.738 2°36.806 5.9 352 13.7 102200 77
2006-06-28 08:04:07 51°20.742 2°36.775 5.3 354 13.7 102210 78
2006-06-28 08:04:10 51°20.744 2°36.756 5.6 355 13.7 102200 78
2006-06-28 08:04:17 51°20.748 2°36.712 5.5 352 13.7 102200 78
2006-06-28 08:04:21 51°20.75 2°36.687 4.6 354 13.7 102200 78
2006-06-28 08:04:27 51°20.754 2°36.649 4.8 356 13.7 102200 77
2006-06-28 08:04:32 51°20.757 2°36.618 4.1 351 13.7 102200 77
2006-06-28 08:04:37 51°20.761 2°36.587 4.3 279 13.7 102210 77
2006-06-28 08:04:41 51°20.763 2°36.562 4.8 353 13.7 102210 77
2006-06-28 08:04:47 51°20.767 2°36.525 5 353 13.7 102210 77
2006-06-28 08:04:52 51°20.77 2°36.493 5.1 350 13.7 102210 77
2006-06-28 08:04:57 51°20.774 2°36.462 5.3 355 13.6 102200 77
2006-06-28 08:05:01 51°20.776 2°36.437 5.9 358 13.6 102200 77
2006-06-28 08:05:07 51°20.78 2°36.4 5.2 354 13.6 102210 77
2006-06-28 08:05:12 51°20.784 2°36.368 4.7 353 13.6 102210 77
2006-06-28 08:05:16 51°20.786 2°36.343 5 353 13.7 102200 77
2006-06-28 08:05:22 51°20.79 2°36.306 5.9 349 13.7 102200 77
2006-06-28 08:05:26 51°20.793 2°36.281 5.4 350 13.7 102210 78
2006-06-28 08:05:31 51°20.797 2°36.25 5.3 351 13.7 102210 78
2006-06-28 08:05:37 51°20.8 2°36.213 5.3 353 13.7 102200 77
2006-06-28 08:05:42 51°20.804 2°36.182 4.8 355 13.7 102200 77
2006-06-28 08:05:47 51°20.807 2°36.15 4.7 354 13.7 102210 77
2006-06-28 08:05:51 51°20.81 2°36.125 5.1 357 13.7 102210 77
2006-06-28 08:05:56 51°20.812 2°36.094 4.6 360 13.7 102210 77
2006-06-28 08:06:02 51°20.816 2°36.057 4.9 359 13.7 102210 77
2006-06-28 08:06:07 51°20.819 2°36.025 5.9 359 13.7 102200 77
2006-06-28 08:06:11 51°20.821 2°36 5.5 359 13.7 102200 77
2006-06-28 08:06:17 51°20.824 2°35.962 5.4 359 13.7 102210 77
2006-06-28 08:06:22 51°20.827 2°35.931 5 357 13.7 102210 77
2006-06-28 08:06:27 51°20.83 2°35.9 5.8 1 13.7 102200 78
2006-06-28 08:06:31 51°20.833 2°35.874 5.5 359 13.7 102200 78
2006-06-28 08:06:37 51°20.836 2°35.837 4.7 4 13.7 102210 78
2006-06-28 08:06:41 51°20.838 2°35.812 4.7 359 13.7 102210 78
2006-06-28 08:06:47 51°20.841 2°35.774 5.7 357 13.7 102200 78
2006-06-28 08:06:51 51°20.843 2°35.749 5.3 356 13.7 102200 78
2006-06-28 08:06:57 51°20.847 2°35.711 5.5 358 13.7 102200 77
2006-06-28 08:07:01 51°20.85 2°35.686 6 354 13.7 102200 77
2006-06-28 08:07:05 51°20.853 2°35.661 6.1 357 13.7 102210 77
2006-06-28 08:07:10 51°20.856 2°35.63 6.5 355 13.7 102210 77
2006-06-28 08:07:15 51°20.859 2°35.599 6.1 354 13.7 102200 77
2006-06-28 08:07:22 51°20.863 2°35.555 6.6 356 13.7 102200 77
2006-06-28 08:07:26 51°20.865 2°35.53 5.5 353 13.7 102200 78
2006-06-28 08:07:30 51°20.868 2°35.505 5.1 356 13.7 102200 78
2006-06-28 08:07:37 51°20.872 2°35.46 5.4 356 13.7 102210 78
2006-06-28 08:07:41 51°20.874 2°35.436 5.1 355 13.7 102210 78
2006-06-28 08:07:47 51°20.877 2°35.398 4.8 355 13.7 102210 77
2006-06-28 08:07:51 51°20.88 2°35.372 4.8 357 13.7 102210 77
2006-06-28 08:07:57 51°20.883 2°35.335 4.6 355 13.7 102200 77
2006-06-28 08:08:02 51°20.887 2°35.304 5 351 13.7 102200 77
2006-06-28 08:08:07 51°20.89 2°35.272 4.7 279 13.7 102200 77
2006-06-28 08:08:11 51°20.893 2°35.247 6.2 350 13.7 102200 77
2006-06-28 08:08:15 51°20.895 2°35.222 7.1 346 13.7 102210 77
2006-06-28 08:08:22 51°20.899 2°35.177 7.5 359 13.7 102200 77
2006-06-28 08:08:27 51°20.903 2°35.146 6.5 2 13.7 102200 77
2006-06-28 08:08:31 51°20.905 2°35.121 5.6 2 13.7 102200 77
2006-06-28 08:08:37 51°20.909 2°35.083 6.1 359 13.7 102200 78
2006-06-28 08:08:42 51°20.912 2°35.051 5.6 1 13.7 102200 78
2006-06-28 08:08:47 51°20.915 2°35.019 6.4 360 13.8 102200 79
2006-06-28 08:08:51 51°20.917 2°34.994 5.3 360 13.8 102190 78
2006-06-28 08:08:57 51°20.92 2°34.956 6.3 359 13.8 102190 78
2006-06-28 08:09:01 51°20.922 2°34.931 5.3 -999 13.8 102190 78
2006-06-28 08:09:07 51°20.925 2°34.892 6.2 358 13.8 102200 77
2006-06-28 08:09:12 51°20.927 2°34.86 5.6 354 13.8 102200 77
2006-06-28 08:09:17 51°20.928 2°34.828 5.5 356 13.8 102200 78
2006-06-28 08:09:22 51°20.931 2°34.796 4.8 2 13.8 102200 78
2006-06-28 08:09:26 51°20.933 2°34.771 5.4 352 13.8 102200 78
2006-06-28 08:09:32 51°20.935 2°34.732 5.8 357 13.8 102200 78
2006-06-28 08:09:37 51°20.937 2°34.701 5.9 352 13.8 102200 78
2006-06-28 08:09:42 51°20.939 2°34.669 5.5 351 13.8 102200 78
2006-06-28 08:09:46 51°20.941 2°34.643 5.3 355 13.8 102200 78
2006-06-28 08:09:51 51°20.943 2°34.611 5.7 354 13.8 102200 78
2006-06-28 08:09:55 51°20.943 2°34.586 5.2 353 13.8 102210 78
2006-06-28 08:10:01 51°20.945 2°34.547 5 352 13.8 102210 78
2006-06-28 08:10:05 51°20.946 2°34.521 5 354 13.8 102210 77
2006-06-28 08:10:11 51°20.946 2°34.482 5.3 351 13.8 102210 77
2006-06-28 08:10:17 51°20.948 2°34.443 5.2 -999 13.8 102200 78
2006-06-28 08:10:22 51°20.949 2°34.41 5.5 352 13.8 102200 78
2006-06-28 08:10:26 51°20.949 2°34.384 6 349 13.8 102210 78
2006-06-28 08:10:30 51°20.95 2°34.357 5.9 351 13.8 102200 78
2006-06-28 08:10:37 51°20.952 2°34.311 6.1 354 13.8 102200 78
2006-06-28 08:10:42 51°20.953 2°34.278 5.1 349 13.8 102200 78
2006-06-28 08:10:47 51°20.955 2°34.244 6 355 13.8 102200 77
2006-06-28 08:10:52 51°20.956 2°34.211 5.1 350 13.8 102200 77
2006-06-28 08:10:57 51°20.958 2°34.178 5.8 351 13.8 102200 78
2006-06-28 08:11:02 51°20.959 2°34.145 6.1 356 13.8 102200 78
2006-06-28 08:11:07 51°20.96 2°34.111 6 356 13.8 102200 77
2006-06-28 08:11:12 51°20.961 2°34.078 6.4 356 13.8 102200 77
2006-06-28 08:11:17 51°20.962 2°34.044 7.6 356 13.8 102200 77
2006-06-28 08:11:22 51°20.963 2°34.011 7.1 356 13.8 102200 77
2006-06-28 08:11:27 51°20.964 2°33.978 6.3 356 13.8 102210 78